createdAt,value
2016-06-29T00:00:00.144Z,0
2016-06-29T00:01:00.036Z,0
2016-06-29T00:01:59.867Z,0
2016-06-29T00:03:00.068Z,0
2016-06-29T00:04:00.051Z,0
2016-06-29T00:04:59.612Z,0
2016-06-29T00:06:00.227Z,0
2016-06-29T00:06:59.608Z,0
2016-06-29T00:07:59.438Z,0
2016-06-29T00:08:59.588Z,0
2016-06-29T00:09:59.569Z,0
2016-06-29T00:10:59.740Z,0
2016-06-29T00:11:59.985Z,0
2016-06-29T00:12:59.845Z,0
2016-06-29T00:14:00.006Z,0
2016-06-29T00:14:59.548Z,0
2016-06-29T00:16:00.070Z,0
2016-06-29T00:16:59.511Z,0
2016-06-29T00:17:59.547Z,0
2016-06-29T00:19:00.231Z,0
2016-06-29T00:20:00.559Z,0
2016-06-29T00:20:59.564Z,0
2016-06-29T00:21:59.883Z,0
2016-06-29T00:22:59.907Z,0
2016-06-29T00:23:59.672Z,0
2016-06-29T00:24:59.748Z,0
2016-06-29T00:26:00.051Z,0
2016-06-29T00:39:00.968Z,0
2016-06-29T00:39:16.138Z,0
2016-06-29T00:40:16.081Z,0
2016-06-29T00:41:16.138Z,0
2016-06-29T00:42:16.119Z,0
2016-06-29T00:43:16.065Z,0
2016-06-29T00:44:16.052Z,0
2016-06-29T00:45:16.037Z,0
2016-06-29T00:46:16.036Z,0
2016-06-29T00:47:15.972Z,0
2016-06-29T00:48:16.071Z,0
2016-06-29T00:49:16.061Z,0
2016-06-29T00:50:16.027Z,0
2016-06-29T00:51:16.018Z,0
2016-06-29T00:52:16.011Z,0
2016-06-29T00:53:16.087Z,0
2016-06-29T00:54:16.007Z,0
2016-06-29T00:55:16.090Z,0
2016-06-29T00:56:16.023Z,0
2016-06-29T00:57:16.293Z,0
2016-06-29T00:58:16.375Z,0
2016-06-29T00:59:16.090Z,0
2016-06-29T01:00:16.023Z,0
2016-06-29T01:01:16.090Z,0
2016-06-29T01:02:16.043Z,0
2016-06-29T01:03:16.027Z,0
2016-06-29T01:04:16.036Z,0
2016-06-29T01:05:16.050Z,0
2016-06-29T01:06:16.081Z,0
2016-06-29T01:19:17.149Z,0
2016-06-29T01:19:32.245Z,0
2016-06-29T01:20:32.195Z,0
2016-06-29T01:21:32.207Z,0
2016-06-29T01:22:32.227Z,0
2016-06-29T01:23:32.189Z,0
2016-06-29T01:24:32.201Z,0
2016-06-29T01:25:32.218Z,0
2016-06-29T01:26:32.165Z,0
2016-06-29T01:27:32.207Z,0
2016-06-29T01:28:32.169Z,0
2016-06-29T01:29:32.181Z,0
2016-06-29T01:30:32.213Z,0
2016-06-29T01:31:32.186Z,0
2016-06-29T01:32:32.184Z,0
2016-06-29T01:33:32.404Z,0
2016-06-29T01:34:32.270Z,0
2016-06-29T01:35:32.707Z,0
2016-06-29T01:36:32.225Z,0
2016-06-29T01:37:32.395Z,0
2016-06-29T01:38:32.223Z,0
2016-06-29T01:39:33.031Z,0
2016-06-29T01:40:32.664Z,0
2016-06-29T01:41:32.589Z,0
2016-06-29T01:42:32.708Z,0
2016-06-29T01:43:32.260Z,0
2016-06-29T01:44:32.282Z,0
2016-06-29T01:45:32.256Z,0
2016-06-29T01:46:32.831Z,0
2016-06-29T01:47:32.414Z,0
2016-06-29T01:48:32.710Z,0
2016-06-29T01:49:32.660Z,0
2016-06-29T01:50:32.610Z,0
2016-06-29T01:51:33.030Z,0
2016-06-29T01:52:32.476Z,0
2016-06-29T01:53:32.970Z,0
2016-06-29T01:54:32.254Z,0
2016-06-29T01:55:32.174Z,0
2016-06-29T01:56:32.172Z,0
2016-06-29T01:57:32.833Z,0
2016-06-29T01:58:32.955Z,0
2016-06-29T01:59:32.791Z,0
2016-06-29T02:00:32.836Z,0
2016-06-29T02:01:32.736Z,0
2016-06-29T02:02:32.186Z,0
2016-06-29T02:03:32.221Z,0
2016-06-29T02:04:32.181Z,0
2016-06-29T02:05:32.191Z,0
2016-06-29T02:06:32.397Z,0
2016-06-29T02:07:32.239Z,0
2016-06-29T02:08:32.216Z,0
2016-06-29T02:09:32.193Z,0
2016-06-29T02:10:32.173Z,0
2016-06-29T02:11:32.192Z,0
2016-06-29T02:12:32.240Z,0
2016-06-29T02:13:32.219Z,0
2016-06-29T02:14:32.219Z,0
2016-06-29T02:15:32.290Z,0
2016-06-29T02:16:32.213Z,0
2016-06-29T02:17:32.472Z,0
2016-06-29T02:18:32.222Z,0
2016-06-29T02:19:32.249Z,0
2016-06-29T02:20:32.254Z,0
2016-06-29T02:21:32.263Z,0
2016-06-29T02:22:32.216Z,0
2016-06-29T02:23:32.231Z,0
2016-06-29T02:24:32.260Z,0
2016-06-29T02:25:32.251Z,0
2016-06-29T02:26:32.251Z,0
2016-06-29T02:27:32.306Z,0
2016-06-29T02:28:32.627Z,0
2016-06-29T02:29:32.314Z,0
2016-06-29T02:30:32.240Z,0
2016-06-29T02:31:32.306Z,0
2016-06-29T02:32:32.735Z,0
2016-06-29T02:33:32.494Z,0
2016-06-29T02:34:32.314Z,0
2016-06-29T02:35:32.251Z,0
2016-06-29T02:36:32.339Z,0
2016-06-29T02:37:32.231Z,0
2016-06-29T02:38:32.233Z,0
2016-06-29T02:39:32.223Z,0
2016-06-29T02:40:32.200Z,0
2016-06-29T02:41:32.187Z,0
2016-06-29T02:42:32.187Z,0
2016-06-29T02:43:32.213Z,0
2016-06-29T02:44:32.420Z,0
2016-06-29T02:45:32.523Z,0
2016-06-29T02:46:32.631Z,0
2016-06-29T02:47:32.342Z,0
2016-06-29T02:48:32.722Z,0
2016-06-29T02:49:32.911Z,0
2016-06-29T02:50:32.511Z,0
2016-06-29T02:51:32.315Z,0
2016-06-29T02:52:32.297Z,0
2016-06-29T02:53:32.210Z,0
2016-06-29T02:54:32.241Z,0
2016-06-29T02:55:32.235Z,0
2016-06-29T02:56:32.974Z,0
2016-06-29T02:57:32.251Z,0
2016-06-29T02:58:32.211Z,0
2016-06-29T02:59:32.217Z,0
2016-06-29T03:00:32.278Z,0
2016-06-29T03:01:32.223Z,0
2016-06-29T03:02:32.237Z,0
2016-06-29T03:03:32.249Z,0
2016-06-29T03:04:32.237Z,0
2016-06-29T03:05:32.230Z,0
2016-06-29T03:06:32.238Z,0
2016-06-29T03:07:32.249Z,0
2016-06-29T03:08:32.313Z,0
2016-06-29T03:09:32.242Z,0
2016-06-29T03:10:32.365Z,0
2016-06-29T03:11:32.256Z,0
2016-06-29T03:12:32.624Z,5
2016-06-29T03:13:32.408Z,5
2016-06-29T03:14:32.868Z,5
2016-06-29T03:15:32.557Z,5
2016-06-29T03:16:32.343Z,5
2016-06-29T03:17:32.995Z,0
2016-06-29T03:18:32.912Z,0
2016-06-29T03:19:32.831Z,0
2016-06-29T03:20:32.910Z,0
2016-06-29T03:21:32.308Z,0
2016-06-29T03:22:33.114Z,5
2016-06-29T03:23:33.107Z,5
2016-06-29T03:24:32.982Z,5
2016-06-29T03:25:35.726Z,5
2016-06-29T03:26:32.814Z,5
2016-06-29T03:27:32.614Z,5
2016-06-29T03:28:32.851Z,5
2016-06-29T03:50:25.700Z,25
2016-06-29T03:51:37.775Z,45
2016-06-29T03:51:53.930Z,45
2016-06-29T03:56:01.894Z,50
2016-06-29T03:58:34.353Z,50
2016-06-29T03:59:05.345Z,55
2016-06-29T04:06:19.494Z,45
2016-06-29T04:06:37.134Z,45
2016-06-29T04:08:03.562Z,50
2016-06-29T04:08:54.303Z,55
2016-06-29T04:09:36.419Z,60
2016-06-29T04:10:36.769Z,70
2016-06-29T04:11:36.675Z,75
2016-06-29T04:12:36.043Z,75
2016-06-29T04:13:36.333Z,80
2016-06-29T04:14:37.595Z,75
2016-06-29T04:15:46.570Z,75
2016-06-29T04:16:36.691Z,80
2016-06-29T04:17:36.477Z,80
2016-06-29T04:18:39.713Z,75
2016-06-29T04:19:36.414Z,75
2016-06-29T04:20:55.456Z,75
2016-06-29T04:22:05.146Z,85
2016-06-29T04:22:53.921Z,85
2016-06-29T04:23:36.365Z,85
2016-06-29T04:24:44.003Z,90
2016-06-29T04:25:47.242Z,95
2016-06-29T04:26:38.413Z,100
2016-06-29T04:27:56.500Z,100
2016-06-29T04:28:36.022Z,100
2016-06-29T04:29:48.526Z,110
2016-06-29T04:30:41.180Z,110
2016-06-29T04:31:36.261Z,115
2016-06-29T04:32:36.495Z,115
2016-06-29T04:33:38.457Z,115
2016-06-29T04:34:37.024Z,135
2016-06-29T04:35:36.564Z,190
2016-06-29T04:37:42.837Z,230
2016-06-29T04:37:58.400Z,240
2016-06-29T04:38:58.557Z,235
2016-06-29T04:39:58.659Z,255
2016-06-29T04:40:59.598Z,240
2016-06-29T04:41:58.843Z,260
2016-06-29T04:42:58.820Z,295
2016-06-29T04:44:02.621Z,245
2016-06-29T04:44:58.970Z,300
2016-06-29T04:46:20.362Z,300
2016-06-29T04:47:15.761Z,295
2016-06-29T04:56:59.989Z,305
2016-06-29T04:57:15.704Z,365
2016-06-29T04:58:15.548Z,370
2016-06-29T04:59:15.321Z,400
2016-06-29T05:00:15.515Z,405
2016-06-29T05:01:15.521Z,415
2016-06-29T05:02:15.783Z,180
2016-06-29T05:03:15.493Z,195
2016-06-29T05:04:15.503Z,450
2016-06-29T05:05:15.477Z,245
2016-06-29T05:06:18.577Z,320
2016-06-29T05:07:15.221Z,245
2016-06-29T05:08:15.191Z,135
2016-06-29T05:09:15.328Z,110
2016-06-29T05:10:15.678Z,120
2016-06-29T05:11:15.376Z,170
2016-06-29T05:12:15.703Z,255
2016-06-29T05:13:15.402Z,170
2016-06-29T05:14:15.396Z,205
2016-06-29T05:15:15.524Z,235
2016-06-29T05:16:15.236Z,165
2016-06-29T05:17:15.358Z,145
2016-06-29T05:18:15.231Z,100
2016-06-29T05:19:15.284Z,90
2016-06-29T05:20:15.312Z,120
2016-06-29T05:21:15.415Z,220
2016-06-29T05:22:15.177Z,230
2016-06-29T05:23:15.263Z,275
2016-06-29T05:24:15.862Z,260
2016-06-29T05:25:15.558Z,415
2016-06-29T05:26:15.356Z,415
2016-06-29T05:27:16.480Z,270
2016-06-29T05:28:15.320Z,265
2016-06-29T05:29:15.282Z,180
2016-06-29T05:30:15.495Z,185
2016-06-29T05:31:15.172Z,190
2016-06-29T05:44:16.064Z,540
2016-06-29T05:44:31.626Z,220
2016-06-29T05:45:31.263Z,395
2016-06-29T05:46:31.193Z,755
2016-06-29T05:47:31.354Z,350
2016-06-29T05:48:31.310Z,240
2016-06-29T05:49:31.376Z,205
2016-06-29T05:50:31.298Z,235
2016-06-29T05:51:31.207Z,800
2016-06-29T05:52:31.297Z,185
2016-06-29T05:53:31.254Z,165
2016-06-29T05:54:32.475Z,205
2016-06-29T05:55:31.261Z,735
2016-06-29T05:56:31.231Z,520
2016-06-29T05:57:31.233Z,550
2016-06-29T05:58:31.262Z,155
2016-06-29T05:59:31.387Z,260
2016-06-29T06:00:31.424Z,170
2016-06-29T06:01:31.237Z,160
2016-06-29T06:02:31.248Z,160
2016-06-29T06:03:31.983Z,155
2016-06-29T06:04:31.287Z,155
2016-06-29T06:05:31.255Z,165
2016-06-29T06:06:31.442Z,195
2016-06-29T06:07:31.892Z,170
2016-06-29T06:08:31.293Z,150
2016-06-29T06:09:31.577Z,155
2016-06-29T06:10:31.250Z,150
2016-06-29T06:11:31.809Z,160
2016-06-29T06:12:31.190Z,160
2016-06-29T06:13:31.229Z,165
2016-06-29T06:14:31.337Z,175
2016-06-29T06:15:31.307Z,190
2016-06-29T06:16:31.287Z,245
2016-06-29T06:17:31.333Z,285
2016-06-29T06:18:31.309Z,280
2016-06-29T06:19:31.507Z,285
2016-06-29T06:20:31.278Z,315
2016-06-29T06:21:32.778Z,280
2016-06-29T06:22:31.245Z,210
2016-06-29T06:23:31.316Z,260
2016-06-29T06:24:31.381Z,315
2016-06-29T06:25:31.706Z,340
2016-06-29T06:26:34.108Z,360
2016-06-29T06:27:49.917Z,350
2016-06-29T06:28:35.813Z,340
2016-06-29T06:29:36.853Z,320
2016-06-29T06:30:35.655Z,260
2016-06-29T06:31:34.686Z,225
2016-06-29T06:32:42.089Z,210
2016-06-29T06:33:36.975Z,210
2016-06-29T06:34:31.499Z,190
2016-06-29T06:35:36.848Z,190
2016-06-29T06:36:34.587Z,190
2016-06-29T06:37:31.265Z,190
2016-06-29T06:38:33.250Z,215
2016-06-29T06:39:31.465Z,210
2016-06-29T06:40:31.401Z,200
2016-06-29T06:41:31.260Z,190
2016-06-29T06:42:34.923Z,200
2016-06-29T06:43:31.433Z,225
2016-06-29T06:44:31.233Z,250
2016-06-29T06:45:32.105Z,305
2016-06-29T06:46:31.310Z,345
2016-06-29T06:47:31.223Z,330
2016-06-29T06:48:31.250Z,335
2016-06-29T06:49:32.718Z,350
2016-06-29T06:50:32.146Z,360
2016-06-29T06:51:31.694Z,340
2016-06-29T06:52:31.475Z,315
2016-06-29T06:53:31.235Z,280
2016-06-29T06:54:31.419Z,295
2016-06-29T07:07:31.898Z,135
2016-06-29T07:07:47.003Z,125
2016-06-29T07:08:47.075Z,110
2016-06-29T07:09:47.051Z,95
2016-06-29T07:10:47.017Z,100
2016-06-29T07:11:46.969Z,80
2016-06-29T07:12:52.438Z,120
2016-06-29T07:13:47.555Z,130
2016-06-29T07:14:47.087Z,140
2016-06-29T07:15:46.935Z,160
2016-06-29T07:16:51.359Z,210
2016-06-29T07:17:47.606Z,215
2016-06-29T07:18:48.683Z,225
2016-06-29T07:19:49.195Z,205
2016-06-29T07:20:47.419Z,165
2016-06-29T07:21:47.004Z,150
2016-06-29T07:22:47.040Z,145
2016-06-29T07:23:47.608Z,185
2016-06-29T07:24:46.979Z,175
2016-06-29T07:25:50.642Z,150
2016-06-29T07:26:48.656Z,145
2016-06-29T07:27:46.984Z,160
2016-06-29T07:28:46.944Z,155
2016-06-29T07:29:47.029Z,155
2016-06-29T07:30:48.458Z,190
2016-06-29T07:31:47.033Z,200
2016-06-29T07:32:48.718Z,235
2016-06-29T07:33:57.935Z,285
2016-06-29T07:34:47.080Z,155
2016-06-29T07:47:57.281Z,150
2016-06-29T07:48:15.616Z,160
2016-06-29T07:49:14.279Z,200
2016-06-29T07:50:14.194Z,160
2016-06-29T07:51:16.826Z,160
2016-06-29T07:52:16.380Z,165
2016-06-29T07:53:14.454Z,160
2016-06-29T07:54:16.446Z,130
2016-06-29T07:55:13.928Z,120
2016-06-29T07:56:14.824Z,130
2016-06-29T08:08:31.197Z,130
2016-06-29T08:09:30.806Z,150
2016-06-29T08:10:31.132Z,160
2016-06-29T08:11:30.780Z,185
2016-06-29T08:12:30.783Z,190
2016-06-29T08:13:30.799Z,180
2016-06-29T08:14:48.142Z,145
2016-06-29T08:15:30.969Z,135
2016-06-29T08:16:30.984Z,125
2016-06-29T08:17:30.840Z,140
2016-06-29T08:18:30.982Z,150
2016-06-29T08:19:33.063Z,120
2016-06-29T08:20:30.885Z,90
2016-06-29T08:21:30.858Z,90
2016-06-29T08:23:40.124Z,125
2016-06-29T08:24:40.063Z,150
2016-06-29T08:25:40.043Z,145
2016-06-29T08:26:40.070Z,155
2016-06-29T08:27:40.019Z,140
2016-06-29T08:28:39.976Z,135
2016-06-29T08:29:40.041Z,135
2016-06-29T08:30:40.425Z,155
2016-06-29T08:31:39.965Z,180
2016-06-29T08:32:40.220Z,225
2016-06-29T08:33:39.996Z,310
2016-06-29T08:34:40.660Z,380
2016-06-29T08:35:40.451Z,425
2016-06-29T08:36:40.018Z,460
2016-06-29T08:37:40.568Z,445
2016-06-29T08:38:40.414Z,520
2016-06-29T08:39:40.127Z,545
2016-06-29T08:40:40.029Z,495
2016-06-29T08:41:56.666Z,500
2016-06-29T08:42:40.046Z,490
2016-06-29T08:43:40.076Z,400
2016-06-29T08:44:40.055Z,355
2016-06-29T08:45:40.719Z,370
2016-06-29T08:46:40.134Z,450
2016-06-29T08:47:40.073Z,360
2016-06-29T08:48:40.006Z,435
2016-06-29T08:49:41.905Z,505
2016-06-29T08:50:41.413Z,395
2016-06-29T08:51:42.271Z,355
2016-06-29T08:52:40.079Z,270
2016-06-29T08:53:40.211Z,295
2016-06-29T08:54:54.430Z,365
2016-06-29T08:55:41.749Z,325
2016-06-29T08:56:41.811Z,240
2016-06-29T08:57:44.161Z,220
2016-06-29T08:58:58.269Z,240
2016-06-29T08:59:42.969Z,300
2016-06-29T09:00:40.102Z,730
2016-06-29T09:01:40.138Z,850
2016-06-29T09:02:51.290Z,950
2016-06-29T09:03:50.926Z,2290
2016-06-29T09:04:58.023Z,2105
2016-06-29T09:06:06.386Z,690
2016-06-29T09:06:43.187Z,2060
2016-06-29T09:07:41.578Z,1945
2016-06-29T09:09:05.538Z,785
2016-06-29T09:09:40.209Z,550
2016-06-29T09:10:45.772Z,730
2016-06-29T09:12:06.768Z,535
2016-06-29T09:13:06.388Z,525
2016-06-29T09:13:40.454Z,670
2016-06-29T09:14:41.660Z,485
2016-06-29T09:15:40.751Z,430
2016-06-29T09:16:42.599Z,395
2016-06-29T09:17:59.924Z,395
2016-06-29T09:18:40.072Z,375
2016-06-29T09:19:41.061Z,400
2016-06-29T09:20:43.399Z,300
2016-06-29T09:21:45.816Z,245
2016-06-29T09:22:55.267Z,195
2016-06-29T09:23:46.506Z,185
2016-06-29T09:24:44.330Z,190
2016-06-29T09:25:42.853Z,240
2016-06-29T09:26:41.258Z,275
2016-06-29T09:27:40.093Z,210
2016-06-29T09:28:40.175Z,175
2016-06-29T09:29:40.066Z,140
2016-06-29T09:30:40.125Z,165
2016-06-29T09:31:40.070Z,245
2016-06-29T09:32:40.089Z,310
2016-06-29T09:33:40.019Z,360
2016-06-29T09:34:40.253Z,480
2016-06-29T09:35:40.262Z,480
2016-06-29T09:36:40.243Z,525
2016-06-29T09:37:41.049Z,665
2016-06-29T09:38:40.150Z,745
2016-06-29T09:39:40.123Z,630
2016-06-29T09:40:41.239Z,415
2016-06-29T09:41:41.941Z,375
2016-06-29T09:42:40.093Z,495
2016-06-29T09:43:40.097Z,360
2016-06-29T09:44:40.052Z,345
2016-06-29T09:45:40.299Z,275
2016-06-29T09:46:40.170Z,225
2016-06-29T09:47:40.040Z,265
2016-06-29T09:48:40.314Z,315
2016-06-29T09:49:40.083Z,295
2016-06-29T09:50:40.110Z,250
2016-06-29T09:51:40.204Z,250
2016-06-29T09:52:40.568Z,240
2016-06-29T09:53:41.040Z,270
2016-06-29T09:54:40.088Z,310
2016-06-29T09:55:40.069Z,335
2016-06-29T09:56:40.085Z,345
2016-06-29T09:57:40.047Z,335
2016-06-29T09:58:40.058Z,325
2016-06-29T09:59:41.985Z,285
2016-06-29T10:00:40.647Z,235
2016-06-29T10:01:44.253Z,245
2016-06-29T10:03:04.450Z,220
2016-06-29T10:03:42.891Z,220
2016-06-29T10:04:42.645Z,190
2016-06-29T10:05:40.451Z,195
2016-06-29T10:06:40.801Z,180
2016-06-29T10:07:41.375Z,230
2016-06-29T10:08:40.090Z,250
2016-06-29T10:09:43.904Z,235
2016-06-29T10:10:40.339Z,215
2016-06-29T10:11:40.777Z,270
2016-06-29T10:12:42.752Z,365
2016-06-29T10:13:47.545Z,470
2016-06-29T10:14:40.127Z,585
2016-06-29T10:15:40.890Z,460
2016-06-29T10:16:40.648Z,485
2016-06-29T10:17:41.635Z,665
2016-06-29T10:18:40.518Z,1245
2016-06-29T10:19:40.974Z,1060
2016-06-29T10:20:40.101Z,755
2016-06-29T10:21:40.763Z,615
2016-06-29T10:22:41.493Z,635
2016-06-29T10:23:40.037Z,915
2016-06-29T10:24:40.266Z,715
2016-06-29T10:25:40.203Z,790
2016-06-29T10:26:40.646Z,870
2016-06-29T10:27:41.147Z,1110
2016-06-29T10:28:43.401Z,1115
2016-06-29T10:29:40.038Z,725
2016-06-29T10:30:40.097Z,745
2016-06-29T10:31:40.812Z,710
2016-06-29T10:32:40.185Z,820
2016-06-29T10:33:43.011Z,1115
2016-06-29T10:34:40.456Z,640
2016-06-29T10:35:42.581Z,765
2016-06-29T10:36:41.436Z,1525
2016-06-29T10:37:40.138Z,565
2016-06-29T10:40:29.330Z,1250
2016-06-29T10:40:44.528Z,635
2016-06-29T10:41:56.470Z,480
2016-06-29T10:42:44.665Z,430
2016-06-29T10:43:50.287Z,805
2016-06-29T10:44:44.890Z,1415
2016-06-29T10:45:44.613Z,955
2016-06-29T10:46:44.931Z,1615
2016-06-29T10:47:44.692Z,485
2016-06-29T10:48:44.594Z,525
2016-06-29T10:49:44.600Z,540
2016-06-29T10:50:44.550Z,395
2016-06-29T10:51:46.409Z,290
2016-06-29T10:52:44.575Z,320
2016-06-29T10:53:44.571Z,395
2016-06-29T10:54:44.633Z,415
2016-06-29T10:55:48.619Z,440
2016-06-29T10:56:49.990Z,465
2016-06-29T10:57:44.588Z,510
2016-06-29T10:58:44.634Z,505
2016-06-29T10:59:44.729Z,455
2016-06-29T11:00:44.970Z,525
2016-06-29T11:01:45.446Z,705
2016-06-29T11:02:44.528Z,1020
2016-06-29T11:03:48.735Z,785
2016-06-29T11:04:44.555Z,960
2016-06-29T11:05:46.719Z,805
2016-06-29T11:06:44.541Z,615
2016-06-29T11:07:44.693Z,515
2016-06-29T11:08:45.494Z,430
2016-06-29T11:09:44.784Z,450
2016-06-29T11:10:44.660Z,605
2016-06-29T11:11:46.794Z,465
2016-06-29T11:12:44.512Z,440
2016-06-29T11:13:44.763Z,405
2016-06-29T11:14:44.816Z,315
2016-06-29T11:15:45.002Z,265
2016-06-29T11:16:44.567Z,280
2016-06-29T11:17:44.954Z,365
2016-06-29T11:18:44.702Z,475
2016-06-29T11:19:44.827Z,540
2016-06-29T11:20:44.547Z,685
2016-06-29T11:21:45.082Z,620
2016-06-29T11:22:45.095Z,1260
2016-06-29T11:23:44.642Z,700
2016-06-29T11:24:44.967Z,420
2016-06-29T11:25:44.608Z,345
2016-06-29T11:26:45.034Z,340
2016-06-29T11:27:44.806Z,715
2016-06-29T11:28:47.369Z,710
2016-06-29T11:29:46.123Z,425
2016-06-29T11:30:44.942Z,365
2016-06-29T11:31:44.811Z,345
2016-06-29T11:32:45.017Z,345
2016-06-29T11:33:45.084Z,355
2016-06-29T11:34:46.910Z,350
2016-06-29T11:35:44.977Z,335
2016-06-29T11:36:45.392Z,395
2016-06-29T11:49:45.430Z,1670
2016-06-29T11:50:00.563Z,425
2016-06-29T11:51:00.550Z,415
2016-06-29T11:52:00.553Z,395
2016-06-29T11:53:00.551Z,395
2016-06-29T11:54:00.886Z,470
2016-06-29T11:55:00.704Z,480
2016-06-29T11:56:00.652Z,385
2016-06-29T11:57:00.542Z,770
2016-06-29T11:58:00.673Z,660
2016-06-29T11:59:01.737Z,750
2016-06-29T12:00:00.678Z,595
2016-06-29T12:01:00.862Z,675
2016-06-29T12:02:01.378Z,525
2016-06-29T12:03:01.635Z,460
2016-06-29T12:04:00.807Z,440
2016-06-29T12:05:00.533Z,390
2016-06-29T12:06:00.593Z,390
2016-06-29T12:07:00.635Z,385
2016-06-29T12:08:00.596Z,385
2016-06-29T12:09:00.532Z,365
2016-06-29T12:10:00.591Z,430
2016-06-29T12:11:00.574Z,450
2016-06-29T12:12:00.702Z,485
2016-06-29T12:13:00.534Z,485
2016-06-29T12:14:01.350Z,495
2016-06-29T12:15:00.691Z,495
2016-06-29T12:16:00.610Z,500
2016-06-29T12:17:00.519Z,495
2016-06-29T12:18:00.631Z,555
2016-06-29T12:19:00.541Z,765
2016-06-29T12:20:00.671Z,1095
2016-06-29T12:21:00.722Z,1365
2016-06-29T12:22:00.605Z,1740
2016-06-29T12:23:01.430Z,2065
2016-06-29T12:24:00.493Z,810
2016-06-29T12:25:00.541Z,1130
2016-06-29T12:26:00.579Z,975
2016-06-29T12:27:00.513Z,2220
2016-06-29T12:28:00.694Z,795
2016-06-29T12:29:00.880Z,625
2016-06-29T12:30:00.994Z,2020
2016-06-29T12:31:00.518Z,440
2016-06-29T12:32:01.843Z,530
2016-06-29T12:33:00.932Z,2320
2016-06-29T12:34:00.677Z,1565
2016-06-29T12:35:00.834Z,2235
2016-06-29T12:36:00.542Z,670
2016-06-29T12:37:02.363Z,545
2016-06-29T12:38:03.012Z,2110
2016-06-29T12:39:00.877Z,2255
2016-06-29T12:40:00.614Z,2290
2016-06-29T12:41:00.946Z,2260
2016-06-29T12:51:01.869Z,2245
2016-06-29T12:51:17.226Z,2275
2016-06-29T12:52:17.699Z,2105
2016-06-29T12:53:17.033Z,2290
2016-06-29T12:54:17.119Z,2125
2016-06-29T12:55:17.007Z,595
2016-06-29T12:56:17.346Z,475
2016-06-29T12:57:17.044Z,2060
2016-06-29T13:10:18.102Z,1875
2016-06-29T13:10:38.714Z,1830
2016-06-29T13:11:33.801Z,1800
2016-06-29T13:12:33.514Z,380
2016-06-29T13:13:33.414Z,420
2016-06-29T13:14:33.351Z,900
2016-06-29T13:15:33.568Z,1980
2016-06-29T13:16:33.413Z,1225
2016-06-29T13:17:36.963Z,325
2016-06-29T13:18:34.136Z,270
2016-06-29T13:19:35.706Z,420
2016-06-29T13:20:33.589Z,305
2016-06-29T13:21:33.406Z,220
2016-06-29T13:22:34.740Z,240
2016-06-29T13:23:34.025Z,300
2016-06-29T13:24:33.603Z,1250
2016-06-29T13:25:33.766Z,1975
2016-06-29T13:26:33.485Z,2000
2016-06-29T13:27:35.622Z,1955
2016-06-29T13:28:33.734Z,1890
2016-06-29T13:29:33.847Z,675
2016-06-29T13:30:33.807Z,645
2016-06-29T13:42:49.989Z,465
2016-06-29T13:43:49.955Z,1430
2016-06-29T13:44:50.078Z,1955
2016-06-29T13:45:49.978Z,1880
2016-06-29T13:46:49.934Z,1830
2016-06-29T13:47:49.985Z,1935
2016-06-29T13:48:50.926Z,1945
2016-06-29T13:50:00.756Z,1910
2016-06-29T13:50:49.924Z,325
2016-06-29T13:51:50.228Z,1660
2016-06-29T13:52:50.415Z,1380
2016-06-29T13:53:50.062Z,1315
2016-06-29T13:54:49.897Z,360
2016-06-29T13:55:50.895Z,1780
2016-06-29T13:56:49.930Z,1795
2016-06-29T13:57:49.994Z,1725
2016-06-29T13:58:50.092Z,1810
2016-06-29T13:59:50.147Z,1615
2016-06-29T14:00:49.864Z,1125
2016-06-29T14:01:50.354Z,535
2016-06-29T14:02:51.784Z,325
2016-06-29T14:03:49.967Z,325
2016-06-29T14:04:51.178Z,325
2016-06-29T14:05:51.299Z,235
2016-06-29T14:06:49.923Z,205
2016-06-29T14:07:50.647Z,210
2016-06-29T14:08:49.945Z,265
2016-06-29T14:09:50.118Z,295
2016-06-29T14:10:50.020Z,295
2016-06-29T14:11:50.232Z,255
2016-06-29T14:12:49.922Z,270
2016-06-29T14:13:50.414Z,305
2016-06-29T14:14:50.359Z,320
2016-06-29T14:15:50.549Z,310
2016-06-29T14:16:49.595Z,280
2016-06-29T14:17:50.622Z,250
2016-06-29T14:18:49.950Z,225
2016-06-29T14:19:50.753Z,210
2016-06-29T14:20:50.101Z,205
2016-06-29T14:21:49.966Z,205
2016-06-29T14:22:50.491Z,185
2016-06-29T14:32:07.851Z,290
2016-06-29T14:33:08.747Z,275
2016-06-29T14:34:07.752Z,265
2016-06-29T14:35:07.851Z,255
2016-06-29T14:36:09.914Z,275
2016-06-29T14:37:08.174Z,320
2016-06-29T14:38:08.235Z,345
2016-06-29T14:39:11.958Z,325
2016-06-29T14:40:07.858Z,315
2016-06-29T14:41:07.827Z,280
2016-06-29T14:42:08.180Z,265
2016-06-29T14:43:08.171Z,245
2016-06-29T14:44:07.747Z,230
2016-06-29T14:45:08.186Z,205
2016-06-29T14:46:09.542Z,215
2016-06-29T14:47:07.814Z,185
2016-06-29T14:48:08.474Z,170
2016-06-29T14:49:08.016Z,185
2016-06-29T14:50:07.790Z,180
2016-06-29T14:51:08.099Z,170
2016-06-29T14:52:08.004Z,165
2016-06-29T14:53:11.516Z,180
2016-06-29T14:54:08.502Z,195
2016-06-29T14:55:07.777Z,215
2016-06-29T14:56:08.225Z,230
2016-06-29T14:57:08.880Z,225
2016-06-29T14:58:07.787Z,225
2016-06-29T14:59:08.262Z,235
2016-06-29T15:00:08.559Z,235
2016-06-29T15:01:07.809Z,220
2016-06-29T15:02:07.754Z,220
2016-06-29T15:03:08.976Z,210
2016-06-29T15:04:07.781Z,190
2016-06-29T15:05:08.083Z,185
2016-06-29T15:06:07.972Z,170
2016-06-29T15:07:07.726Z,180
2016-06-29T15:08:19.663Z,160
2016-06-29T15:09:07.812Z,175
2016-06-29T15:10:07.786Z,170
2016-06-29T15:11:07.953Z,180
2016-06-29T15:12:07.846Z,185
2016-06-29T15:13:08.022Z,160
2016-06-29T15:14:07.807Z,170
2016-06-29T15:15:07.914Z,165
2016-06-29T15:16:08.130Z,165
2016-06-29T15:17:08.025Z,160
2016-06-29T15:18:07.865Z,145
2016-06-29T15:19:08.228Z,145
2016-06-29T15:20:08.260Z,140
2016-06-29T15:21:07.806Z,140
2016-06-29T15:22:07.947Z,135
2016-06-29T15:23:08.414Z,165
2016-06-29T15:24:07.851Z,185
2016-06-29T15:25:08.187Z,190
2016-06-29T15:26:08.262Z,190
2016-06-29T15:27:10.387Z,195
2016-06-29T15:28:09.272Z,195
2016-06-29T15:29:07.741Z,190
2016-06-29T15:30:07.798Z,190
2016-06-29T15:31:08.250Z,200
2016-06-29T15:32:07.876Z,200
2016-06-29T15:33:07.898Z,195
2016-06-29T15:34:07.801Z,190
2016-06-29T15:35:07.806Z,185
2016-06-29T15:36:12.097Z,185
2016-06-29T15:37:07.761Z,185
2016-06-29T15:38:08.597Z,175
2016-06-29T15:39:08.123Z,170
2016-06-29T15:40:08.209Z,160
2016-06-29T15:41:09.251Z,165
2016-06-29T15:42:07.797Z,165
2016-06-29T15:43:08.533Z,165
2016-06-29T15:44:08.241Z,170
2016-06-29T15:45:08.075Z,160
2016-06-29T15:46:09.162Z,165
2016-06-29T15:47:07.779Z,170
2016-06-29T15:48:07.790Z,180
2016-06-29T15:49:07.893Z,185
2016-06-29T15:50:07.795Z,180
2016-06-29T15:51:07.931Z,175
2016-06-29T15:52:07.825Z,190
2016-06-29T15:53:07.964Z,200
2016-06-29T15:54:08.407Z,200
2016-06-29T15:55:10.163Z,200
2016-06-29T15:56:07.803Z,195
2016-06-29T15:57:18.926Z,180
2016-06-29T15:58:07.909Z,170
2016-06-29T15:59:07.835Z,160
2016-06-29T16:00:07.871Z,150
2016-06-29T16:01:07.837Z,155
2016-06-29T16:02:08.854Z,150
2016-06-29T16:03:07.853Z,150
2016-06-29T16:04:08.074Z,150
2016-06-29T16:05:07.977Z,145
2016-06-29T16:06:08.289Z,150
2016-06-29T16:07:08.004Z,155
2016-06-29T16:08:07.963Z,160
2016-06-29T16:09:08.102Z,165
2016-06-29T16:10:08.262Z,175
2016-06-29T16:11:07.856Z,180
2016-06-29T16:12:07.866Z,190
2016-06-29T16:13:07.846Z,185
2016-06-29T16:14:07.878Z,190
2016-06-29T16:15:07.802Z,195
2016-06-29T16:16:07.845Z,210
2016-06-29T16:17:07.925Z,225
2016-06-29T16:18:08.039Z,215
2016-06-29T16:19:08.045Z,210
2016-06-29T16:20:07.795Z,215
2016-06-29T16:21:07.975Z,195
2016-06-29T16:22:08.222Z,185
2016-06-29T16:23:08.477Z,165
2016-06-29T16:24:07.868Z,150
2016-06-29T16:25:07.820Z,145
2016-06-29T16:26:07.985Z,140
2016-06-29T16:27:08.231Z,145
2016-06-29T16:28:08.006Z,155
2016-06-29T16:29:21.555Z,170
2016-06-29T16:30:07.927Z,165
2016-06-29T16:31:07.887Z,165
2016-06-29T16:32:52.252Z,170
2016-06-29T16:33:09.859Z,170
2016-06-29T16:34:09.273Z,170
2016-06-29T16:35:09.275Z,175
2016-06-29T16:36:09.242Z,170